createdAt,value
2024-03-02T00:01:25.390Z,1.60
2024-03-02T00:03:52.896Z,3.50
2024-03-02T00:06:22.976Z,2.20
2024-03-02T00:08:49.877Z,2.05
2024-03-02T00:11:17.440Z,2.03
2024-03-02T00:13:47.143Z,1.90
2024-03-02T00:16:13.910Z,3.38
2024-03-02T00:18:40.695Z,2.08
2024-03-02T00:21:10.773Z,1.73
2024-03-02T00:23:38.134Z,2.55
2024-03-02T00:26:04.738Z,3.30
2024-03-02T00:28:36.481Z,1.35
2024-03-02T00:31:07.408Z,5.90
2024-03-02T00:33:48.243Z,2.55
2024-03-02T00:38:51.885Z,3.88
2024-03-02T00:41:24.230Z,3.70
2024-03-02T00:44:07.388Z,1.25
2024-03-02T00:46:51.841Z,1.60
2024-03-02T00:49:23.075Z,2.78
2024-03-02T00:51:53.629Z,3.75
2024-03-02T00:54:22.681Z,2.53
2024-03-02T00:56:49.750Z,1.23
2024-03-02T00:59:19.813Z,1.25
2024-03-02T01:01:49.156Z,1.00
2024-03-02T01:04:17.868Z,1.00
2024-03-02T01:06:47.353Z,0.85
2024-03-02T01:09:14.150Z,0.55
2024-03-02T01:11:40.853Z,3.33
2024-03-02T01:14:07.516Z,1.38
2024-03-02T01:16:33.995Z,0.80
2024-03-02T01:19:00.731Z,0.50
2024-03-02T01:21:27.740Z,0.88
2024-03-02T01:23:54.388Z,0.70
2024-03-02T01:26:20.787Z,0.57
2024-03-02T01:28:47.396Z,1.02
2024-03-02T01:31:14.049Z,0.55
2024-03-02T01:33:40.728Z,0.60
2024-03-02T01:36:09.143Z,1.08
2024-03-02T01:38:35.987Z,0.60
2024-03-02T01:41:03.530Z,0.38
2024-03-02T01:43:30.098Z,0.75
2024-03-02T01:45:57.858Z,0.70
2024-03-02T01:48:24.482Z,1.23
2024-03-02T01:50:51.415Z,1.92
2024-03-02T01:53:17.979Z,1.02
2024-03-02T01:55:44.703Z,1.27
2024-03-02T01:58:11.443Z,0.98
2024-03-02T02:00:38.167Z,0.60
2024-03-02T02:03:04.964Z,1.25
2024-03-02T02:05:32.632Z,0.57
2024-03-02T02:07:59.696Z,0.60
2024-03-02T02:10:26.181Z,0.40
2024-03-02T02:12:52.805Z,0.65
2024-03-02T02:15:37.905Z,1.50
2024-03-02T02:18:05.166Z,1.00
2024-03-02T02:20:31.767Z,0.68
2024-03-02T02:23:03.125Z,0.77
2024-03-02T02:25:30.756Z,1.65
2024-03-02T02:27:58.606Z,0.50
2024-03-02T02:30:33.221Z,0.50
2024-03-02T02:33:00.135Z,2.30
2024-03-02T02:35:26.888Z,0.63
2024-03-02T02:37:55.428Z,1.58
2024-03-02T02:40:22.215Z,0.82
2024-03-02T02:42:49.250Z,0.80
2024-03-02T02:45:16.773Z,0.70
2024-03-02T02:47:44.800Z,1.00
2024-03-02T02:50:12.870Z,0.90
2024-03-02T02:52:41.450Z,1.75
2024-03-02T02:55:10.255Z,0.70
2024-03-02T02:57:39.874Z,1.00
2024-03-02T03:00:11.895Z,0.98
2024-03-02T03:02:43.031Z,0.57
2024-03-02T03:05:11.570Z,0.68
2024-03-02T03:07:38.743Z,1.98
2024-03-02T03:10:05.690Z,1.35
2024-03-02T03:12:35.096Z,0.65
2024-03-02T03:15:02.146Z,1.73
2024-03-02T03:17:28.690Z,1.05
2024-03-02T03:19:55.845Z,1.55
2024-03-02T03:22:22.315Z,0.38
2024-03-02T03:24:48.915Z,1.45
2024-03-02T03:27:15.423Z,0.77
2024-03-02T03:29:41.865Z,0.50
2024-03-02T03:32:09.072Z,1.13
2024-03-02T03:34:36.090Z,0.43
2024-03-02T03:37:03.459Z,0.90
2024-03-02T03:39:29.952Z,0.38
2024-03-02T03:41:56.610Z,1.67
2024-03-02T03:44:23.175Z,0.50
2024-03-02T03:46:49.759Z,0.45
2024-03-02T03:49:16.304Z,1.60
2024-03-02T03:51:42.726Z,0.95
2024-03-02T03:54:09.425Z,0.50
2024-03-02T03:56:35.864Z,0.70
2024-03-02T03:59:02.781Z,0.40
2024-03-02T04:01:29.259Z,0.70
2024-03-02T04:03:56.094Z,0.70
2024-03-02T04:06:22.670Z,0.35
2024-03-02T04:08:49.386Z,0.75
2024-03-02T04:11:16.193Z,0.68
2024-03-02T04:13:42.645Z,0.68
2024-03-02T04:16:09.108Z,0.30
2024-03-02T04:18:36.268Z,2.50
2024-03-02T04:21:02.866Z,0.77
2024-03-02T04:23:29.271Z,0.90
2024-03-02T04:25:55.691Z,1.08
2024-03-02T04:28:22.119Z,1.20
2024-03-02T04:30:48.658Z,1.25
2024-03-02T04:33:15.259Z,0.85
2024-03-02T04:35:41.858Z,0.65
2024-03-02T04:38:08.264Z,1.48
2024-03-02T04:40:34.664Z,0.50
2024-03-02T04:43:01.227Z,1.30
2024-03-02T04:45:27.814Z,0.82
2024-03-02T04:47:54.314Z,0.57
2024-03-02T04:50:20.768Z,0.70
2024-03-02T04:52:47.246Z,1.92
2024-03-02T04:55:29.037Z,0.32
2024-03-02T04:57:58.552Z,0.68
2024-03-02T05:00:25.177Z,0.43
2024-03-02T05:02:52.270Z,1.17
2024-03-02T05:05:19.094Z,0.52
2024-03-02T05:07:45.704Z,0.60
2024-03-02T05:10:15.740Z,0.65
2024-03-02T05:12:45.906Z,1.58
2024-03-02T05:15:14.873Z,0.65
2024-03-02T05:17:45.479Z,0.38
2024-03-02T05:20:12.659Z,1.58
2024-03-02T05:22:39.492Z,0.80
2024-03-02T05:25:08.065Z,2.28
2024-03-02T05:27:34.773Z,2.00
2024-03-02T05:30:01.625Z,0.88
2024-03-02T05:32:28.267Z,2.35
2024-03-02T05:34:56.209Z,1.77
2024-03-02T05:37:22.932Z,1.77
2024-03-02T05:39:49.617Z,0.93
2024-03-02T05:42:17.869Z,1.95
2024-03-02T05:44:44.689Z,0.52
2024-03-02T05:47:11.253Z,0.70
2024-03-02T05:49:37.806Z,1.48
2024-03-02T05:52:04.522Z,1.20
2024-03-02T05:54:31.086Z,2.45
2024-03-02T05:56:57.548Z,1.80
2024-03-02T05:59:23.957Z,3.58
2024-03-02T06:01:53.300Z,3.05
2024-03-02T06:04:20.064Z,2.30
2024-03-02T06:06:46.954Z,0.43
2024-03-02T06:09:13.795Z,0.82
2024-03-02T06:11:41.578Z,1.27
2024-03-02T06:14:09.286Z,0.88
2024-03-02T06:16:36.165Z,0.60
2024-03-02T06:19:03.271Z,1.52
2024-03-02T06:21:30.014Z,2.50
2024-03-02T06:23:57.718Z,1.52
2024-03-02T06:26:26.083Z,0.60
2024-03-02T06:28:53.173Z,2.15
2024-03-02T06:31:19.778Z,0.45
2024-03-02T06:33:46.591Z,0.95
2024-03-02T06:36:13.268Z,1.45
2024-03-02T06:38:43.538Z,2.08
2024-03-02T06:41:10.425Z,1.40
2024-03-02T06:43:36.985Z,1.30
2024-03-02T06:46:03.725Z,1.50
2024-03-02T06:48:31.248Z,1.85
2024-03-02T06:50:59.263Z,1.77
2024-03-02T06:53:26.108Z,2.22
2024-03-02T06:55:52.607Z,2.33
2024-03-02T06:58:19.054Z,0.38
2024-03-02T07:00:45.628Z,2.58
2024-03-02T07:03:12.277Z,0.77
2024-03-02T07:05:38.708Z,1.25
2024-03-02T07:08:06.269Z,2.00
2024-03-02T07:10:32.888Z,2.78
2024-03-02T07:12:59.419Z,0.80
2024-03-02T07:15:28.793Z,0.60
2024-03-02T07:17:55.688Z,0.65
2024-03-02T07:20:22.161Z,1.58
2024-03-02T07:22:48.584Z,1.40
2024-03-02T07:27:45.243Z,1.33
2024-03-02T07:30:17.256Z,1.58
2024-03-02T07:32:46.719Z,0.80
2024-03-02T07:35:14.748Z,0.40
2024-03-02T07:37:43.153Z,0.80
2024-03-02T07:40:12.299Z,1.75
2024-03-02T07:42:40.354Z,1.52
2024-03-02T07:45:07.646Z,0.77
2024-03-02T07:47:36.012Z,2.10
2024-03-02T07:50:02.705Z,1.90
2024-03-02T07:52:29.387Z,2.13
2024-03-02T07:54:56.346Z,1.02
2024-03-02T07:57:22.892Z,2.05
2024-03-02T07:59:50.177Z,2.45
2024-03-02T08:02:16.759Z,2.65
2024-03-02T08:04:43.449Z,1.35
2024-03-02T08:07:10.448Z,1.83
2024-03-02T08:09:36.932Z,0.90
2024-03-02T08:12:03.666Z,1.08
2024-03-02T08:14:30.230Z,0.98
2024-03-02T08:16:57.498Z,0.50
2024-03-02T08:19:24.330Z,0.60
2024-03-02T08:21:51.039Z,2.67
2024-03-02T08:24:17.684Z,0.80
2024-03-02T08:26:44.211Z,2.63
2024-03-02T08:29:11.038Z,0.82
2024-03-02T08:31:39.699Z,1.08
2024-03-02T08:34:07.849Z,0.95
2024-03-02T08:36:34.365Z,2.42
2024-03-02T08:39:03.233Z,2.25
2024-03-02T08:41:29.763Z,2.25
2024-03-02T08:43:56.386Z,2.17
2024-03-02T08:46:22.869Z,1.73
2024-03-02T08:48:49.356Z,0.40
2024-03-02T08:51:15.841Z,1.40
2024-03-02T08:53:42.394Z,3.53
2024-03-02T08:56:08.811Z,0.80
2024-03-02T08:58:35.720Z,0.82
2024-03-02T09:01:02.804Z,1.58
2024-03-02T09:03:37.048Z,0.52
2024-03-02T09:06:03.756Z,2.95
2024-03-02T09:08:30.340Z,0.68
2024-03-02T09:10:57.556Z,2.38
2024-03-02T09:13:24.010Z,1.98
2024-03-02T09:15:50.500Z,2.13
2024-03-02T09:18:16.969Z,2.35
2024-03-02T09:20:43.546Z,1.90
2024-03-02T09:23:10.008Z,2.17
2024-03-02T09:25:41.868Z,3.15
2024-03-02T09:28:08.739Z,2.05
2024-03-02T09:30:35.354Z,2.58
2024-03-02T09:35:31.168Z,4.15
2024-03-02T09:37:57.595Z,0.98
2024-03-02T09:40:24.138Z,3.63
2024-03-02T09:42:55.789Z,2.20
2024-03-02T09:45:28.464Z,2.95
2024-03-02T09:47:55.975Z,2.28
2024-03-02T09:50:25.464Z,2.25
2024-03-02T09:52:53.540Z,2.03
2024-03-02T09:55:20.498Z,1.58
2024-03-02T09:57:47.565Z,2.15
2024-03-02T10:00:15.955Z,1.58
2024-03-02T10:02:43.470Z,2.72
2024-03-02T10:05:10.493Z,1.95
2024-03-02T10:07:36.943Z,5.50
2024-03-02T10:10:15.021Z,2.08
2024-03-02T10:12:41.653Z,2.80
2024-03-02T10:15:10.279Z,2.38
2024-03-02T10:17:36.754Z,3.75
2024-03-02T10:20:24.029Z,2.30
2024-03-02T10:22:50.473Z,1.25
2024-03-02T10:28:07.054Z,2.88
2024-03-02T10:30:35.199Z,4.30
2024-03-02T10:33:06.687Z,4.35
2024-03-02T10:35:34.215Z,0.95
2024-03-02T10:38:01.582Z,2.92
2024-03-02T10:40:28.333Z,3.25
2024-03-02T10:42:55.925Z,4.95
2024-03-02T10:45:25.831Z,2.45
2024-03-02T10:47:52.427Z,2.38
2024-03-02T10:50:18.970Z,2.05
2024-03-02T10:52:46.346Z,1.13
2024-03-02T10:55:13.647Z,6.13
2024-03-02T10:57:51.713Z,2.75
2024-03-02T11:00:25.684Z,2.28
2024-03-02T11:02:57.280Z,2.47
2024-03-02T11:05:35.190Z,2.70
2024-03-02T11:08:05.321Z,4.32
2024-03-02T11:10:37.863Z,3.50
2024-03-02T11:13:11.071Z,3.38
2024-03-02T11:15:38.559Z,2.53
2024-03-02T11:18:09.787Z,1.70
2024-03-02T11:20:39.852Z,4.55
2024-03-02T11:23:10.505Z,2.15
2024-03-02T11:25:37.611Z,2.63
2024-03-02T11:28:06.952Z,1.48
2024-03-02T11:30:33.904Z,1.85
2024-03-02T11:33:08.596Z,1.83
2024-03-02T11:35:49.248Z,1.98
2024-03-02T11:38:15.836Z,2.05
2024-03-02T11:40:42.454Z,1.70
2024-03-02T11:43:13.548Z,2.00
2024-03-02T11:45:45.277Z,1.40
2024-03-02T11:48:15.512Z,2.33
2024-03-02T11:50:47.346Z,0.63
2024-03-02T11:53:14.814Z,2.25
2024-03-02T11:55:42.068Z,4.55
2024-03-02T11:58:09.119Z,1.38
2024-03-02T12:00:36.356Z,1.30
2024-03-02T12:03:05.753Z,1.38
2024-03-02T12:05:33.144Z,2.92
2024-03-02T12:08:01.165Z,3.90
2024-03-02T12:10:28.227Z,3.10
2024-03-02T12:13:08.906Z,0.98
2024-03-02T12:15:40.107Z,1.13
2024-03-02T12:18:07.323Z,2.20
2024-03-02T12:20:34.961Z,1.70
2024-03-02T12:23:04.165Z,1.75
2024-03-02T12:25:34.470Z,1.40
2024-03-02T12:28:02.885Z,1.65
2024-03-02T12:30:36.524Z,3.05
2024-03-02T12:33:03.624Z,2.40
2024-03-02T12:35:31.011Z,1.52
2024-03-02T12:37:57.476Z,1.00
2024-03-02T12:40:24.382Z,1.67
2024-03-02T12:42:52.815Z,1.52
2024-03-02T12:45:26.595Z,2.80
2024-03-02T12:47:53.713Z,2.92
2024-03-02T12:50:21.398Z,3.15
2024-03-02T12:52:55.302Z,4.22
2024-03-02T12:55:26.063Z,3.00
2024-03-02T12:57:53.616Z,2.42
2024-03-02T13:00:21.915Z,4.22
2024-03-02T13:02:49.715Z,2.90
2024-03-02T13:05:16.402Z,2.67
2024-03-02T13:07:43.570Z,2.67
2024-03-02T13:10:10.575Z,2.45
2024-03-02T13:12:38.729Z,1.77
2024-03-02T13:15:06.671Z,2.25
2024-03-02T13:17:37.953Z,1.75
2024-03-02T13:20:09.159Z,3.42
2024-03-02T13:22:36.124Z,2.38
2024-03-02T13:25:05.306Z,1.90
2024-03-02T13:27:33.313Z,3.03
2024-03-02T13:29:59.850Z,2.25
2024-03-02T13:32:27.179Z,4.10
2024-03-02T13:34:53.879Z,2.22
2024-03-02T13:37:21.504Z,5.28
2024-03-02T13:39:47.973Z,2.38
2024-03-02T13:42:16.124Z,3.10
2024-03-02T13:44:49.562Z,3.95
2024-03-02T13:47:18.240Z,1.38
2024-03-02T13:49:46.873Z,1.63
2024-03-02T13:52:17.905Z,1.33
2024-03-02T13:54:46.591Z,3.33
2024-03-02T13:57:13.700Z,2.97
2024-03-02T13:59:41.747Z,1.30
2024-03-02T14:02:10.099Z,1.83
2024-03-02T14:04:38.482Z,3.08
2024-03-02T14:07:08.211Z,2.45
2024-03-02T14:09:35.203Z,2.97
2024-03-02T14:12:01.832Z,2.17
2024-03-02T14:14:28.295Z,2.78
2024-03-02T14:16:57.072Z,2.50
2024-03-02T14:19:23.586Z,2.95
2024-03-02T14:21:50.071Z,2.72
2024-03-02T14:24:16.727Z,2.92
2024-03-02T14:26:45.667Z,4.30
2024-03-02T14:31:39.166Z,3.13
2024-03-02T14:34:05.745Z,1.73
2024-03-02T14:36:32.514Z,1.48
2024-03-02T14:38:59.299Z,4.00
2024-03-02T14:41:25.945Z,1.65
2024-03-02T14:43:53.346Z,1.02
2024-03-02T14:46:20.697Z,1.45
2024-03-02T14:48:47.856Z,1.67
2024-03-02T14:51:15.069Z,1.13
2024-03-02T14:53:41.920Z,2.55
2024-03-02T14:56:08.466Z,1.30
2024-03-02T14:58:36.580Z,3.10
2024-03-02T15:01:10.379Z,2.88
2024-03-02T15:03:37.095Z,1.45
2024-03-02T15:06:05.232Z,2.10
2024-03-02T15:08:37.806Z,1.52
2024-03-02T15:11:05.041Z,1.48
2024-03-02T15:13:37.570Z,1.65
2024-03-02T15:16:04.478Z,1.98
2024-03-02T15:18:31.707Z,3.08
2024-03-02T15:20:58.154Z,2.15
2024-03-02T15:23:27.161Z,0.82
2024-03-02T15:25:53.682Z,2.05
2024-03-02T15:28:20.281Z,1.73
2024-03-02T15:30:46.786Z,1.90
2024-03-02T15:33:13.330Z,1.52
2024-03-02T15:35:39.836Z,3.65
2024-03-02T15:38:14.839Z,3.22
2024-03-02T15:40:45.525Z,0.98
2024-03-02T15:43:11.980Z,2.97
2024-03-02T15:45:41.645Z,2.08
2024-03-02T15:48:08.180Z,1.63
2024-03-02T15:50:35.760Z,1.27
2024-03-02T15:53:05.457Z,2.85
2024-03-02T15:55:32.047Z,1.92
2024-03-02T15:57:58.610Z,3.17
2024-03-02T16:00:25.120Z,1.95
2024-03-02T16:02:51.565Z,3.38
2024-03-02T16:05:19.471Z,2.55
2024-03-02T16:07:46.504Z,1.90
2024-03-02T16:10:13.784Z,2.40
2024-03-02T16:12:40.609Z,2.63
2024-03-02T16:15:08.962Z,2.78
2024-03-02T16:17:35.749Z,2.67
2024-03-02T16:20:06.977Z,2.55
2024-03-02T16:22:34.438Z,2.17
2024-03-02T16:25:01.089Z,2.58
2024-03-02T16:27:28.952Z,2.42
2024-03-02T16:29:59.922Z,2.28
2024-03-02T16:32:29.234Z,2.47
2024-03-02T16:34:56.425Z,1.83
2024-03-02T16:37:24.786Z,2.67
2024-03-02T16:39:51.481Z,1.55
2024-03-02T16:42:20.972Z,2.47
2024-03-02T16:44:53.002Z,2.47
2024-03-02T16:47:19.489Z,3.13
2024-03-02T16:49:46.391Z,4.68
2024-03-02T16:52:14.046Z,2.28
2024-03-02T16:54:40.728Z,2.05
2024-03-02T16:57:07.204Z,2.85
2024-03-02T16:59:33.664Z,2.55
2024-03-02T17:02:00.269Z,1.75
2024-03-02T17:04:27.356Z,1.55
2024-03-02T17:06:54.189Z,1.70
2024-03-02T17:09:20.790Z,2.75
2024-03-02T17:11:47.175Z,2.67
2024-03-02T17:14:13.706Z,2.90
2024-03-02T17:16:40.285Z,5.28
2024-03-02T17:19:06.794Z,4.28
2024-03-02T17:21:33.848Z,3.92
2024-03-02T17:24:03.823Z,2.42
2024-03-02T17:26:30.902Z,3.38
2024-03-02T17:28:57.339Z,5.20
2024-03-02T17:31:23.790Z,3.90
2024-03-02T17:33:50.571Z,4.57
2024-03-02T17:36:17.140Z,4.10
2024-03-02T17:38:43.954Z,2.30
2024-03-02T17:41:11.705Z,3.25
2024-03-02T17:43:38.851Z,4.93
2024-03-02T17:46:05.559Z,3.28
2024-03-02T17:48:32.926Z,6.03
2024-03-02T17:50:59.527Z,2.25
2024-03-02T17:53:26.089Z,15.18
2024-03-02T17:55:52.768Z,35.78
2024-03-02T17:58:19.288Z,12.40
2024-03-02T18:00:47.361Z,4.57
2024-03-02T18:03:13.852Z,6.55
2024-03-02T18:05:40.451Z,3.13
2024-03-02T18:08:07.513Z,4.25
2024-03-02T18:10:34.931Z,3.60
2024-03-02T18:13:04.403Z,3.40
2024-03-02T18:15:31.112Z,6.35
2024-03-02T18:17:57.596Z,3.60
2024-03-02T18:20:24.047Z,3.67
2024-03-02T18:22:50.513Z,3.08
2024-03-02T18:25:17.258Z,2.88
2024-03-02T18:27:43.895Z,6.82
2024-03-02T18:30:13.578Z,3.05
2024-03-02T18:32:40.091Z,3.35
2024-03-02T18:35:09.496Z,3.80
2024-03-02T18:37:37.230Z,3.78
2024-03-02T18:40:06.230Z,3.80
2024-03-02T18:42:34.206Z,13.48
2024-03-02T18:45:04.298Z,14.60
2024-03-02T18:47:30.764Z,11.57
2024-03-02T18:49:58.389Z,4.45
2024-03-02T18:52:28.570Z,4.93
2024-03-02T18:54:55.216Z,4.35
2024-03-02T18:57:21.717Z,7.63
2024-03-02T18:59:48.155Z,7.80
2024-03-02T19:02:14.617Z,18.10
2024-03-02T19:04:42.075Z,27.45
2024-03-02T19:07:08.752Z,23.48
2024-03-02T19:09:35.379Z,16.48
2024-03-02T19:12:01.970Z,27.10
2024-03-02T19:14:30.744Z,41.53
2024-03-02T19:16:57.209Z,33.95
2024-03-02T19:19:23.658Z,11.40
2024-03-02T19:21:56.154Z,12.20
2024-03-02T19:24:28.903Z,4.35
2024-03-02T19:26:55.381Z,2.72
2024-03-02T19:29:24.427Z,3.28
2024-03-02T19:31:50.870Z,3.95
2024-03-02T19:34:18.940Z,2.50
2024-03-02T19:36:45.646Z,3.38
2024-03-02T19:39:12.297Z,10.52
2024-03-02T19:41:38.767Z,13.57
2024-03-02T19:44:07.264Z,5.03
2024-03-02T19:46:33.782Z,5.20
2024-03-02T19:49:00.267Z,3.70
2024-03-02T19:51:26.811Z,4.15
2024-03-02T19:53:53.343Z,3.83
2024-03-02T19:56:20.154Z,6.00
2024-03-02T19:58:46.587Z,12.75
2024-03-02T20:01:13.107Z,9.85
2024-03-02T20:03:39.632Z,3.70
2024-03-02T20:06:06.139Z,2.72
2024-03-02T20:08:32.766Z,3.45
2024-03-02T20:10:59.221Z,3.85
2024-03-02T20:13:25.686Z,3.47
2024-03-02T20:15:53.117Z,8.27
2024-03-02T20:18:19.730Z,3.83
2024-03-02T20:20:46.217Z,3.80
2024-03-02T20:23:12.673Z,3.85
2024-03-02T20:25:39.295Z,3.85
2024-03-02T20:28:06.333Z,2.75
2024-03-02T20:30:32.892Z,4.47
2024-03-02T20:32:59.398Z,4.20
2024-03-02T20:35:25.902Z,2.78
2024-03-02T20:37:52.369Z,4.57
2024-03-02T20:40:20.235Z,2.75
2024-03-02T20:42:47.328Z,3.97
2024-03-02T20:45:19.152Z,2.80
2024-03-02T20:47:55.760Z,3.85
2024-03-02T20:50:22.486Z,3.42
2024-03-02T20:52:49.143Z,2.78
2024-03-02T20:55:15.907Z,2.60
2024-03-02T20:57:42.445Z,4.05
2024-03-02T21:00:09.324Z,3.85
2024-03-02T21:02:35.869Z,3.55
2024-03-02T21:05:03.535Z,3.63
2024-03-02T21:07:30.036Z,3.35
2024-03-02T21:09:58.112Z,4.00
2024-03-02T21:12:24.641Z,4.80
2024-03-02T21:14:51.253Z,5.25
2024-03-02T21:17:18.036Z,3.95
2024-03-02T21:19:44.492Z,5.78
2024-03-02T21:22:11.200Z,3.05
2024-03-02T21:24:39.434Z,3.75
2024-03-02T21:27:07.826Z,4.18
2024-03-02T21:29:34.321Z,4.00
2024-03-02T21:32:00.911Z,3.92
2024-03-02T21:34:27.413Z,4.78
2024-03-02T21:36:53.938Z,3.58
2024-03-02T21:39:25.999Z,4.28
2024-03-02T21:41:59.014Z,5.05
2024-03-02T21:44:25.599Z,3.55
2024-03-02T21:46:52.049Z,3.65
2024-03-02T21:49:18.672Z,5.22
2024-03-02T21:51:45.348Z,5.07
2024-03-02T21:54:11.849Z,3.80
2024-03-02T21:56:38.370Z,3.38
2024-03-02T21:59:04.820Z,2.95
2024-03-02T22:01:31.352Z,3.42
2024-03-02T22:03:58.006Z,3.90
2024-03-02T22:06:24.454Z,2.58
2024-03-02T22:08:53.345Z,3.17
2024-03-02T22:11:19.868Z,3.00
2024-03-02T22:13:50.181Z,3.42
2024-03-02T22:16:17.329Z,2.25
2024-03-02T22:18:43.849Z,2.38
2024-03-02T22:21:10.287Z,3.25
2024-03-02T22:23:39.767Z,3.25
2024-03-02T22:26:06.301Z,4.82
2024-03-02T22:28:32.902Z,4.93
2024-03-02T22:30:59.402Z,5.30
2024-03-02T22:33:25.942Z,4.13
2024-03-02T22:35:52.496Z,4.57
2024-03-02T22:38:20.710Z,2.85
2024-03-02T22:40:47.132Z,3.00
2024-03-02T22:43:13.849Z,2.58
2024-03-02T22:45:40.524Z,2.75
2024-03-02T22:48:07.604Z,3.35
2024-03-02T22:50:34.153Z,3.05
2024-03-02T22:53:00.612Z,3.20
2024-03-02T22:55:28.254Z,2.67
2024-03-02T22:57:57.378Z,2.88
2024-03-02T23:02:59.005Z,3.35
2024-03-02T23:05:25.430Z,2.80
2024-03-02T23:07:52.009Z,5.00
2024-03-02T23:10:20.549Z,2.90
2024-03-02T23:12:47.300Z,4.30
2024-03-02T23:15:13.848Z,3.03
2024-03-02T23:17:40.365Z,3.75
2024-03-02T23:20:07.659Z,3.40
2024-03-02T23:22:34.216Z,4.45
2024-03-02T23:25:00.805Z,5.05
2024-03-02T23:27:30.308Z,3.38
2024-03-02T23:29:57.069Z,3.55
2024-03-02T23:32:23.873Z,3.10
2024-03-02T23:34:50.371Z,4.35
2024-03-02T23:37:17.045Z,3.38
2024-03-02T23:39:47.124Z,6.78
2024-03-02T23:42:13.583Z,3.78
2024-03-02T23:44:40.128Z,3.35
2024-03-02T23:47:07.054Z,3.45
2024-03-02T23:49:33.614Z,3.35
2024-03-02T23:52:03.172Z,3.88
2024-03-02T23:54:29.698Z,4.40
2024-03-02T23:56:56.303Z,5.18
2024-03-02T23:59:22.840Z,3.45
